createdAt,value
2023-05-09T00:00:40.362Z,35.87
2023-05-09T00:01:40.427Z,35.94
2023-05-09T00:02:40.619Z,35.90
2023-05-09T00:03:40.439Z,35.93
2023-05-09T00:04:40.485Z,35.91
2023-05-09T00:05:40.445Z,35.90
2023-05-09T00:06:40.519Z,35.91
2023-05-09T00:07:40.506Z,35.92
2023-05-09T00:08:40.459Z,35.95
2023-05-09T00:09:40.518Z,35.92
2023-05-09T00:10:40.564Z,35.90
2023-05-09T00:11:40.527Z,35.93
2023-05-09T00:12:40.538Z,35.90
2023-05-09T00:13:40.604Z,35.90
2023-05-09T00:14:40.585Z,35.92
2023-05-09T00:15:40.617Z,35.87
2023-05-09T00:16:40.657Z,35.94
2023-05-09T00:17:40.675Z,35.94
2023-05-09T00:18:40.716Z,35.87
2023-05-09T00:19:40.711Z,35.87
2023-05-09T00:20:40.651Z,35.88
2023-05-09T00:21:40.674Z,35.91
2023-05-09T00:22:40.665Z,35.88
2023-05-09T00:23:40.675Z,35.89
2023-05-09T00:24:40.675Z,35.91
2023-05-09T00:25:40.680Z,35.89
2023-05-09T00:26:40.628Z,35.87
2023-05-09T00:27:40.631Z,35.80
2023-05-09T00:28:40.636Z,35.85
2023-05-09T00:29:40.643Z,35.90
2023-05-09T00:30:40.687Z,35.88
2023-05-09T00:31:40.721Z,35.90
2023-05-09T00:32:40.764Z,35.86
2023-05-09T00:33:40.701Z,35.86
2023-05-09T00:34:40.788Z,35.91
2023-05-09T00:35:40.722Z,35.87
2023-05-09T00:36:40.697Z,35.86
2023-05-09T00:37:40.771Z,35.87
2023-05-09T00:38:40.735Z,35.87
2023-05-09T00:39:40.726Z,35.89
2023-05-09T00:40:40.748Z,35.89
2023-05-09T00:41:40.699Z,35.89
2023-05-09T00:42:40.738Z,35.87
2023-05-09T00:43:40.750Z,35.88
2023-05-09T00:44:40.777Z,35.90
2023-05-09T00:45:40.760Z,35.89
2023-05-09T00:46:40.777Z,35.85
2023-05-09T00:47:40.770Z,35.82
2023-05-09T00:48:40.728Z,35.81
2023-05-09T00:49:40.746Z,35.88
2023-05-09T00:50:40.826Z,35.86
2023-05-09T00:51:40.758Z,35.85
2023-05-09T00:52:40.763Z,35.90
2023-05-09T00:53:40.778Z,35.86
2023-05-09T00:54:40.757Z,35.87
2023-05-09T00:55:40.731Z,35.84
2023-05-09T00:56:40.724Z,35.84
2023-05-09T00:57:40.737Z,35.81
2023-05-09T00:58:40.720Z,35.86
2023-05-09T00:59:40.746Z,35.86
2023-05-09T01:00:40.732Z,35.86
2023-05-09T01:01:40.767Z,35.82
2023-05-09T01:02:40.762Z,35.84
2023-05-09T01:03:40.770Z,35.82
2023-05-09T01:04:40.751Z,35.84
2023-05-09T01:05:40.774Z,35.79
2023-05-09T01:06:40.826Z,35.85
2023-05-09T01:07:40.789Z,35.82
2023-05-09T01:08:40.749Z,35.86
2023-05-09T01:09:40.752Z,35.81
2023-05-09T01:10:40.748Z,35.85
2023-05-09T01:11:40.783Z,35.82
2023-05-09T01:12:40.774Z,35.85
2023-05-09T01:13:40.783Z,35.85
2023-05-09T01:14:40.759Z,35.84
2023-05-09T01:15:40.821Z,35.79
2023-05-09T01:16:40.760Z,35.84
2023-05-09T01:17:40.793Z,35.81
2023-05-09T01:18:40.788Z,35.85
2023-05-09T01:19:40.799Z,35.84
2023-05-09T01:20:40.764Z,35.82
2023-05-09T01:21:40.776Z,35.76
2023-05-09T01:22:40.914Z,35.78
2023-05-09T01:23:40.787Z,35.80
2023-05-09T01:24:40.779Z,35.80
2023-05-09T01:25:40.809Z,35.82
2023-05-09T01:26:40.798Z,35.82
2023-05-09T01:27:40.845Z,35.82
2023-05-09T01:28:40.771Z,35.80
2023-05-09T01:29:40.839Z,35.78
2023-05-09T01:30:40.839Z,35.85
2023-05-09T01:31:40.841Z,35.77
2023-05-09T01:32:40.868Z,35.80
2023-05-09T01:33:40.842Z,35.80
2023-05-09T01:34:40.817Z,35.80
2023-05-09T01:35:40.877Z,35.76
2023-05-09T01:36:40.813Z,35.80
2023-05-09T01:37:40.868Z,35.81
2023-05-09T01:38:40.862Z,35.80
2023-05-09T01:39:40.795Z,35.80
2023-05-09T01:40:40.827Z,35.78
2023-05-09T01:41:40.821Z,35.80
2023-05-09T01:42:40.797Z,35.80
2023-05-09T01:43:40.873Z,35.77
2023-05-09T01:44:40.834Z,35.78
2023-05-09T01:45:40.838Z,35.80
2023-05-09T01:46:40.835Z,35.77
2023-05-09T01:47:40.861Z,35.79
2023-05-09T01:48:40.806Z,35.76
2023-05-09T01:49:40.815Z,35.77
2023-05-09T01:50:40.818Z,35.76
2023-05-09T01:51:43.013Z,35.80
2023-05-09T01:52:40.806Z,35.80
2023-05-09T01:53:40.810Z,35.80
2023-05-09T01:54:40.889Z,35.80
2023-05-09T01:55:40.795Z,35.77
2023-05-09T01:56:40.779Z,35.80
2023-05-09T01:57:40.777Z,35.76
2023-05-09T01:58:40.785Z,35.77
2023-05-09T01:59:40.757Z,35.76
2023-05-09T02:00:40.787Z,35.80
2023-05-09T02:01:40.766Z,35.73
2023-05-09T02:02:40.825Z,35.80
2023-05-09T02:03:40.753Z,35.77
2023-05-09T02:04:40.767Z,35.75
2023-05-09T02:05:40.789Z,35.76
2023-05-09T02:06:40.709Z,35.75
2023-05-09T02:07:40.701Z,35.73
2023-05-09T02:08:40.701Z,35.77
2023-05-09T02:09:40.698Z,35.77
2023-05-09T02:10:40.754Z,35.78
2023-05-09T02:11:40.674Z,35.76
2023-05-09T02:12:40.717Z,35.77
2023-05-09T02:13:40.632Z,35.72
2023-05-09T02:14:40.660Z,35.72
2023-05-09T02:15:40.697Z,35.72
2023-05-09T02:16:40.771Z,35.75
2023-05-09T02:17:40.650Z,35.71
2023-05-09T02:18:40.654Z,35.71
2023-05-09T02:19:40.606Z,35.68
2023-05-09T02:20:40.613Z,35.69
2023-05-09T02:21:40.602Z,35.69
2023-05-09T02:22:40.579Z,35.72
2023-05-09T02:23:40.577Z,35.71
2023-05-09T02:24:40.622Z,35.70
2023-05-09T02:25:40.602Z,35.70
2023-05-09T02:26:40.656Z,35.75
2023-05-09T02:27:40.546Z,35.71
2023-05-09T02:28:40.556Z,35.70
2023-05-09T02:29:40.642Z,35.70
2023-05-09T02:30:40.590Z,35.68
2023-05-09T02:31:40.581Z,35.66
2023-05-09T02:32:40.571Z,35.70
2023-05-09T02:33:40.518Z,35.67
2023-05-09T02:34:40.502Z,35.68
2023-05-09T02:35:40.488Z,35.66
2023-05-09T02:36:40.637Z,35.69
2023-05-09T02:37:40.478Z,35.66
2023-05-09T02:38:40.469Z,35.66
2023-05-09T02:39:40.488Z,35.66
2023-05-09T02:40:40.441Z,35.67
2023-05-09T02:41:40.459Z,35.66
2023-05-09T02:42:40.448Z,35.67
2023-05-09T02:43:40.472Z,35.68
2023-05-09T02:44:40.465Z,35.66
2023-05-09T02:45:40.492Z,35.67
2023-05-09T02:46:40.469Z,35.62
2023-05-09T02:47:40.444Z,35.66
2023-05-09T02:48:40.456Z,35.66
2023-05-09T02:49:40.451Z,35.66
2023-05-09T02:50:40.392Z,35.67
2023-05-09T02:51:40.386Z,35.61
2023-05-09T02:52:40.363Z,35.62
2023-05-09T02:53:40.408Z,35.63
2023-05-09T02:54:40.350Z,35.60
2023-05-09T02:55:40.352Z,35.62
2023-05-09T02:56:40.347Z,35.57
2023-05-09T02:57:40.410Z,35.61
2023-05-09T02:58:40.435Z,35.62
2023-05-09T02:59:40.382Z,35.60
2023-05-09T03:00:40.377Z,35.60
2023-05-09T03:01:40.383Z,35.62
2023-05-09T03:02:40.439Z,35.62
2023-05-09T03:03:40.426Z,35.65
2023-05-09T03:04:40.311Z,35.63
2023-05-09T03:05:40.335Z,35.58
2023-05-09T03:06:40.308Z,35.63
2023-05-09T03:07:40.288Z,35.59
2023-05-09T03:08:40.271Z,35.61
2023-05-09T03:09:41.264Z,35.60
2023-05-09T03:10:40.294Z,35.58
2023-05-09T03:11:40.246Z,35.56
2023-05-09T03:12:40.317Z,35.58
2023-05-09T03:13:40.224Z,35.61
2023-05-09T03:14:40.340Z,35.57
2023-05-09T03:15:40.240Z,35.59
2023-05-09T03:16:41.193Z,35.58
2023-05-09T03:17:40.273Z,35.55
2023-05-09T03:18:40.262Z,35.54
2023-05-09T03:19:40.271Z,35.60
2023-05-09T03:20:40.225Z,35.57
2023-05-09T03:21:40.199Z,35.57
2023-05-09T03:22:40.194Z,35.55
2023-05-09T03:23:40.219Z,35.55
2023-05-09T03:24:40.188Z,35.55
2023-05-09T03:25:40.191Z,35.55
2023-05-09T03:26:40.151Z,35.55
2023-05-09T03:27:40.144Z,35.58
2023-05-09T03:28:40.138Z,35.57
2023-05-09T03:29:40.109Z,35.56
2023-05-09T03:30:40.205Z,35.55
2023-05-09T03:31:40.200Z,35.56
2023-05-09T03:32:40.101Z,35.57
2023-05-09T03:33:40.152Z,35.56
2023-05-09T03:34:40.079Z,35.53
2023-05-09T03:35:40.095Z,35.54
2023-05-09T03:36:40.103Z,35.55
2023-05-09T03:37:40.106Z,35.56
2023-05-09T03:38:40.072Z,35.54
2023-05-09T03:39:40.032Z,35.51
2023-05-09T03:40:40.042Z,35.52
2023-05-09T03:41:40.057Z,35.55
2023-05-09T03:42:40.030Z,35.55
2023-05-09T03:43:40.049Z,35.55
2023-05-09T03:44:40.053Z,35.54
2023-05-09T03:45:40.015Z,35.49
2023-05-09T03:46:40.085Z,35.56
2023-05-09T03:47:40.757Z,35.52
2023-05-09T03:48:40.014Z,35.51
2023-05-09T03:49:40.047Z,35.55
2023-05-09T03:50:39.996Z,35.53
2023-05-09T03:51:41.893Z,35.54
2023-05-09T03:52:40.035Z,35.54
2023-05-09T03:53:39.954Z,35.51
2023-05-09T03:54:39.973Z,35.57
2023-05-09T03:55:39.968Z,35.57
2023-05-09T03:56:39.937Z,35.53
2023-05-09T03:57:39.953Z,35.56
2023-05-09T03:58:39.942Z,35.51
2023-05-09T03:59:39.949Z,35.56
2023-05-09T04:00:39.917Z,35.52
2023-05-09T04:01:40.240Z,35.54
2023-05-09T04:02:40.080Z,35.51
2023-05-09T04:03:40.091Z,35.52
2023-05-09T04:04:39.922Z,35.44
2023-05-09T04:05:39.908Z,35.45
2023-05-09T04:06:39.893Z,35.27
2023-05-09T04:07:39.856Z,35.26
2023-05-09T04:08:39.891Z,35.16
2023-05-09T04:09:39.900Z,35.13
2023-05-09T04:10:39.874Z,35.12
2023-05-09T04:11:39.890Z,35.08
2023-05-09T04:12:39.848Z,35.09
2023-05-09T04:13:39.824Z,35.03
2023-05-09T04:14:39.853Z,35.09
2023-05-09T04:15:39.825Z,35.03
2023-05-09T04:16:39.879Z,35.03
2023-05-09T04:17:39.855Z,35.05
2023-05-09T04:18:39.923Z,35.03
2023-05-09T04:19:39.799Z,35.09
2023-05-09T04:20:39.777Z,35.06
2023-05-09T04:21:39.786Z,35.04
2023-05-09T04:22:39.802Z,35.04
2023-05-09T04:23:39.796Z,35.06
2023-05-09T04:24:39.795Z,35.01
2023-05-09T04:25:39.786Z,35.08
2023-05-09T04:26:39.735Z,35.07
2023-05-09T04:27:39.762Z,35.14
2023-05-09T04:28:39.733Z,35.09
2023-05-09T04:29:39.754Z,35.14
2023-05-09T04:30:39.762Z,35.16
2023-05-09T04:31:39.794Z,35.14
2023-05-09T04:32:39.807Z,35.16
2023-05-09T04:33:39.683Z,35.19
2023-05-09T04:34:39.800Z,35.21
2023-05-09T04:35:39.701Z,35.19
2023-05-09T04:36:39.679Z,35.22
2023-05-09T04:37:39.657Z,35.24
2023-05-09T04:38:39.671Z,35.22
2023-05-09T04:39:39.689Z,35.22
2023-05-09T04:40:39.688Z,35.24
2023-05-09T04:41:39.654Z,35.22
2023-05-09T04:42:39.623Z,35.22
2023-05-09T04:43:39.638Z,35.23
2023-05-09T04:44:39.652Z,35.20
2023-05-09T04:45:39.631Z,35.23
2023-05-09T04:46:39.709Z,35.19
2023-05-09T04:47:39.683Z,35.22
2023-05-09T04:48:39.592Z,35.21
2023-05-09T04:49:39.608Z,35.18
2023-05-09T04:50:39.688Z,35.21
2023-05-09T04:51:39.617Z,35.21
2023-05-09T04:52:39.582Z,35.22
2023-05-09T04:53:39.607Z,35.24
2023-05-09T04:54:39.648Z,35.21
2023-05-09T04:55:39.612Z,35.21
2023-05-09T04:56:39.632Z,35.21
2023-05-09T04:57:39.616Z,35.24
2023-05-09T04:58:39.594Z,35.24
2023-05-09T04:59:39.632Z,35.22
2023-05-09T05:00:39.636Z,35.20
2023-05-09T05:01:39.718Z,35.20
2023-05-09T05:02:39.652Z,35.31
2023-05-09T05:03:39.656Z,35.35
2023-05-09T05:04:39.696Z,35.35
2023-05-09T05:05:39.790Z,35.45
2023-05-09T05:06:39.740Z,35.41
2023-05-09T05:07:39.625Z,35.36
2023-05-09T05:08:39.625Z,35.35
2023-05-09T05:09:39.639Z,35.30
2023-05-09T05:10:39.653Z,35.25
2023-05-09T05:11:41.646Z,35.23
2023-05-09T05:12:40.652Z,35.25
2023-05-09T05:13:39.619Z,35.18
2023-05-09T05:14:39.627Z,35.13
2023-05-09T05:15:39.627Z,35.22
2023-05-09T05:16:39.719Z,35.13
2023-05-09T05:17:39.741Z,35.16
2023-05-09T05:18:39.552Z,35.11
2023-05-09T05:19:39.595Z,35.14
2023-05-09T05:20:39.614Z,35.12
2023-05-09T05:21:39.588Z,35.02
2023-05-09T05:22:39.643Z,35.01
2023-05-09T05:23:39.519Z,35.02
2023-05-09T05:24:39.532Z,35.18
2023-05-09T05:25:39.646Z,35.11
2023-05-09T05:26:39.518Z,35.15
2023-05-09T05:27:39.553Z,35.13
2023-05-09T05:28:39.560Z,35.11
2023-05-09T05:29:39.515Z,35.27
2023-05-09T05:30:39.781Z,35.28
2023-05-09T05:31:39.512Z,36.01
2023-05-09T05:32:39.524Z,35.95
2023-05-09T05:33:39.512Z,36.36
2023-05-09T05:34:39.509Z,36.35
2023-05-09T05:35:39.606Z,36.53
2023-05-09T05:36:39.467Z,36.72
2023-05-09T05:37:39.454Z,36.73
2023-05-09T05:38:39.530Z,36.37
2023-05-09T05:39:39.430Z,36.16
2023-05-09T05:40:39.533Z,36.36
2023-05-09T05:41:39.441Z,36.21
2023-05-09T05:42:39.429Z,36.12
2023-05-09T05:43:39.401Z,36.77
2023-05-09T05:44:39.433Z,36.30
2023-05-09T05:45:39.479Z,36.28
2023-05-09T05:46:39.378Z,36.16
2023-05-09T05:47:39.490Z,36.11
2023-05-09T05:48:39.382Z,36.15
2023-05-09T05:49:39.466Z,36.15
2023-05-09T05:50:39.402Z,36.12
2023-05-09T05:51:39.357Z,36.31
2023-05-09T05:52:39.372Z,36.33
2023-05-09T05:53:39.322Z,36.32
2023-05-09T05:54:39.459Z,36.32
2023-05-09T05:55:39.378Z,36.22
2023-05-09T05:56:39.396Z,36.20
2023-05-09T05:57:39.424Z,36.55
2023-05-09T05:58:39.400Z,36.45
2023-05-09T05:59:39.514Z,36.56
2023-05-09T06:00:39.520Z,36.57
2023-05-09T06:01:39.628Z,36.56
2023-05-09T06:02:39.658Z,36.54
2023-05-09T06:03:39.679Z,36.55
2023-05-09T06:04:39.697Z,36.64
2023-05-09T06:05:39.771Z,36.71
2023-05-09T06:06:39.911Z,36.57
2023-05-09T06:07:39.893Z,36.60
2023-05-09T06:08:39.983Z,36.68
2023-05-09T06:09:40.008Z,36.63
2023-05-09T06:10:40.087Z,36.62
2023-05-09T06:11:40.202Z,36.68
2023-05-09T06:12:40.276Z,36.71
2023-05-09T06:13:40.325Z,36.65
2023-05-09T06:14:40.331Z,36.75
2023-05-09T06:15:40.391Z,36.69
2023-05-09T06:16:40.557Z,36.80
2023-05-09T06:17:40.560Z,36.63
2023-05-09T06:18:40.602Z,36.66
2023-05-09T06:19:40.627Z,36.40
2023-05-09T06:20:40.629Z,36.65
2023-05-09T06:21:40.697Z,36.48
2023-05-09T06:22:40.748Z,36.25
2023-05-09T06:23:51.015Z,36.24
2023-05-09T06:24:41.827Z,36.24
2023-05-09T06:25:40.816Z,36.19
2023-05-09T06:26:40.982Z,36.18
2023-05-09T06:27:40.896Z,36.29
2023-05-09T06:28:40.794Z,36.21
2023-05-09T06:29:40.797Z,36.11
2023-05-09T06:30:40.754Z,36.17
2023-05-09T06:31:40.870Z,36.19
2023-05-09T06:32:40.850Z,36.25
2023-05-09T06:33:40.869Z,36.25
2023-05-09T06:34:40.984Z,36.37
2023-05-09T06:35:41.318Z,36.29
2023-05-09T06:36:41.017Z,36.29
2023-05-09T06:37:41.101Z,36.16
2023-05-09T06:38:41.112Z,36.26
2023-05-09T06:39:41.238Z,36.37
2023-05-09T06:40:41.231Z,36.25
2023-05-09T06:41:41.287Z,36.48
2023-05-09T06:42:41.414Z,36.47
2023-05-09T06:43:41.433Z,36.51
2023-05-09T06:44:41.502Z,36.52
2023-05-09T06:45:41.506Z,36.46
2023-05-09T06:46:41.681Z,36.44
2023-05-09T06:47:41.670Z,36.43
2023-05-09T06:48:41.907Z,36.38
2023-05-09T06:49:41.826Z,36.34
2023-05-09T06:50:41.827Z,36.34
2023-05-09T06:51:41.918Z,36.30
2023-05-09T06:52:41.921Z,36.25
2023-05-09T06:53:41.962Z,36.57
2023-05-09T06:54:42.043Z,36.31
2023-05-09T06:55:42.116Z,36.22
2023-05-09T06:56:42.150Z,36.22
2023-05-09T06:57:42.185Z,36.55
2023-05-09T06:58:42.429Z,36.63
2023-05-09T06:59:42.787Z,36.66
2023-05-09T07:00:42.857Z,36.77
2023-05-09T07:01:42.558Z,36.86
2023-05-09T07:02:42.647Z,36.81
2023-05-09T07:03:42.818Z,36.86
2023-05-09T07:04:42.600Z,36.93
2023-05-09T07:05:42.633Z,36.64
2023-05-09T07:06:42.693Z,36.66
2023-05-09T07:07:42.742Z,36.61
2023-05-09T07:08:42.823Z,36.52
2023-05-09T07:09:42.812Z,36.65
2023-05-09T07:10:42.996Z,36.57
2023-05-09T07:11:42.914Z,36.55
2023-05-09T07:12:43.036Z,36.66
2023-05-09T07:13:43.025Z,36.66
2023-05-09T07:14:43.142Z,36.75
2023-05-09T07:15:43.464Z,36.66
2023-05-09T07:16:43.207Z,36.71
2023-05-09T07:17:43.213Z,36.62
2023-05-09T07:18:43.246Z,36.61
2023-05-09T07:19:43.357Z,36.65
2023-05-09T07:20:43.279Z,36.54
2023-05-09T07:21:43.323Z,36.42
2023-05-09T07:22:43.299Z,36.60
2023-05-09T07:23:43.368Z,36.52
2023-05-09T07:24:43.439Z,36.47
2023-05-09T07:25:43.800Z,36.34
2023-05-09T07:26:43.425Z,36.31
2023-05-09T07:27:43.465Z,36.45
2023-05-09T07:28:43.516Z,36.37
2023-05-09T07:29:43.501Z,36.40
2023-05-09T07:30:44.047Z,36.31
2023-05-09T07:31:43.596Z,36.20
2023-05-09T07:32:43.634Z,36.12
2023-05-09T07:33:43.730Z,36.33
2023-05-09T07:34:43.690Z,36.43
2023-05-09T07:35:43.926Z,36.50
2023-05-09T07:36:44.599Z,36.54
2023-05-09T07:37:43.833Z,36.48
2023-05-09T07:38:43.978Z,36.51
2023-05-09T07:39:43.901Z,36.31
2023-05-09T07:40:43.946Z,36.32
2023-05-09T07:41:44.283Z,36.28
2023-05-09T07:42:44.017Z,36.24
2023-05-09T07:43:44.132Z,36.23
2023-05-09T07:44:44.078Z,36.20
2023-05-09T07:45:44.151Z,36.21
2023-05-09T07:46:44.444Z,36.16
2023-05-09T07:47:44.233Z,36.52
2023-05-09T07:48:44.203Z,36.51
2023-05-09T07:49:44.204Z,36.64
2023-05-09T07:50:44.266Z,36.78
2023-05-09T07:51:44.306Z,36.61
2023-05-09T07:52:44.407Z,36.44
2023-05-09T07:53:44.405Z,36.69
2023-05-09T07:54:44.810Z,36.77
2023-05-09T07:55:44.393Z,36.66
2023-05-09T07:56:45.684Z,36.65
2023-05-09T07:57:44.574Z,36.74
2023-05-09T07:58:44.560Z,36.57
2023-05-09T07:59:44.575Z,36.83
2023-05-09T08:00:44.660Z,36.60
2023-05-09T08:01:44.936Z,36.52
2023-05-09T08:02:44.821Z,36.78
2023-05-09T08:03:45.094Z,36.79
2023-05-09T08:04:44.735Z,36.72
2023-05-09T08:05:44.699Z,36.95
2023-05-09T08:06:44.777Z,36.76
2023-05-09T08:07:44.744Z,36.57
2023-05-09T08:08:44.791Z,36.70
2023-05-09T08:09:44.827Z,36.95
2023-05-09T08:10:44.891Z,36.68
2023-05-09T08:11:45.847Z,36.48
2023-05-09T08:12:44.975Z,36.46
2023-05-09T08:13:45.954Z,36.50
2023-05-09T08:14:44.938Z,36.61
2023-05-09T08:15:45.016Z,36.75
2023-05-09T08:16:45.053Z,36.51
2023-05-09T08:17:45.104Z,36.76
2023-05-09T08:18:45.163Z,36.81
2023-05-09T08:19:45.128Z,36.49
2023-05-09T08:20:45.372Z,36.93
2023-05-09T08:21:45.122Z,36.50
2023-05-09T08:22:45.192Z,36.81
2023-05-09T08:23:45.231Z,36.65
2023-05-09T08:24:45.231Z,36.85
2023-05-09T08:25:45.364Z,36.77
2023-05-09T08:26:45.883Z,36.76
2023-05-09T08:27:45.455Z,36.81
2023-05-09T08:28:45.422Z,37.06
2023-05-09T08:29:45.389Z,36.68
2023-05-09T08:30:45.477Z,36.61
2023-05-09T08:31:45.440Z,36.57
2023-05-09T08:32:45.645Z,36.50
2023-05-09T08:33:45.516Z,36.55
2023-05-09T08:34:45.596Z,36.33
2023-05-09T08:35:45.489Z,36.35
2023-05-09T08:36:45.623Z,36.36
2023-05-09T08:37:45.687Z,36.24
2023-05-09T08:38:45.623Z,36.04
2023-05-09T08:39:45.641Z,35.99
2023-05-09T08:40:45.636Z,35.92
2023-05-09T08:41:45.745Z,36.90
2023-05-09T08:42:45.894Z,36.38
2023-05-09T08:43:45.869Z,36.31
2023-05-09T08:44:45.794Z,36.47
2023-05-09T08:45:45.898Z,36.44
2023-05-09T08:46:45.921Z,36.33
2023-05-09T08:47:45.981Z,36.30
2023-05-09T08:48:45.917Z,36.16
2023-05-09T08:49:45.995Z,36.07
2023-05-09T08:50:46.074Z,36.20
2023-05-09T08:51:46.027Z,36.19
2023-05-09T08:52:46.027Z,36.15
2023-05-09T08:53:46.397Z,36.09
2023-05-09T08:54:46.113Z,36.10
2023-05-09T08:55:46.373Z,36.10
2023-05-09T08:56:46.216Z,36.12
2023-05-09T08:57:46.167Z,36.11
2023-05-09T08:58:46.810Z,36.12
2023-05-09T08:59:46.451Z,36.11
2023-05-09T09:00:46.221Z,36.08
2023-05-09T09:01:46.342Z,36.21
2023-05-09T09:02:46.324Z,36.95
2023-05-09T09:03:46.308Z,37.02
2023-05-09T09:04:49.278Z,37.13
2023-05-09T09:05:46.382Z,37.31
2023-05-09T09:06:46.441Z,37.30
2023-05-09T09:07:46.869Z,36.99
2023-05-09T09:08:46.990Z,37.03
2023-05-09T09:09:46.299Z,37.27
2023-05-09T09:10:46.872Z,36.81
2023-05-09T09:11:46.364Z,36.90
2023-05-09T09:12:48.021Z,36.77
2023-05-09T09:13:46.310Z,36.58
2023-05-09T09:14:46.391Z,36.77
2023-05-09T09:15:46.860Z,36.47
2023-05-09T09:16:46.304Z,36.20
2023-05-09T09:17:46.337Z,36.25
2023-05-09T09:18:46.263Z,36.22
2023-05-09T09:19:46.246Z,36.15
2023-05-09T09:20:46.423Z,36.10
2023-05-09T09:21:46.242Z,36.16
2023-05-09T09:22:46.227Z,36.13
2023-05-09T09:23:46.351Z,36.04
2023-05-09T09:24:46.208Z,35.98
2023-05-09T09:25:46.245Z,35.96
2023-05-09T09:26:46.360Z,35.93
2023-05-09T09:27:46.214Z,35.86
2023-05-09T09:28:46.207Z,35.89
2023-05-09T09:29:46.184Z,35.98
2023-05-09T09:30:46.399Z,35.98
2023-05-09T09:31:46.298Z,35.94
2023-05-09T09:32:46.335Z,35.86
2023-05-09T09:33:46.620Z,36.27
2023-05-09T09:34:46.163Z,36.89
2023-05-09T09:35:46.382Z,36.90
2023-05-09T09:36:46.113Z,36.77
2023-05-09T09:37:46.139Z,36.62
2023-05-09T09:38:46.218Z,36.16
2023-05-09T09:39:46.351Z,35.87
2023-05-09T09:40:46.089Z,35.71
2023-05-09T09:41:46.098Z,35.70
2023-05-09T09:42:46.089Z,35.86
2023-05-09T09:43:46.142Z,35.86
2023-05-09T09:44:46.383Z,35.83
2023-05-09T09:45:46.072Z,35.90
2023-05-09T09:46:46.060Z,35.76
2023-05-09T09:47:46.182Z,35.84
2023-05-09T09:48:46.028Z,35.84
2023-05-09T09:49:46.331Z,35.89
2023-05-09T09:50:46.060Z,35.89
2023-05-09T09:51:46.031Z,35.82
2023-05-09T09:52:46.346Z,35.80
2023-05-09T09:53:46.032Z,35.77
2023-05-09T09:54:46.207Z,35.66
2023-05-09T09:55:45.976Z,35.67
2023-05-09T09:56:45.990Z,35.55
2023-05-09T09:57:45.995Z,35.41
2023-05-09T09:58:45.970Z,35.25
2023-05-09T09:59:45.970Z,35.14
2023-05-09T10:00:46.008Z,35.30
2023-05-09T10:01:46.027Z,35.22
2023-05-09T10:02:45.971Z,35.24
2023-05-09T10:03:46.092Z,35.11
2023-05-09T10:04:45.936Z,35.13
2023-05-09T10:05:46.017Z,35.02
2023-05-09T10:06:45.933Z,34.84
2023-05-09T10:07:45.986Z,34.70
2023-05-09T10:08:45.884Z,34.65
2023-05-09T10:09:45.876Z,34.79
2023-05-09T10:10:46.106Z,34.75
2023-05-09T10:11:45.892Z,34.81
2023-05-09T10:12:45.922Z,34.84
2023-05-09T10:13:45.893Z,34.77
2023-05-09T10:14:45.848Z,34.71
2023-05-09T10:15:53.481Z,34.77
2023-05-09T10:16:46.976Z,34.89
2023-05-09T10:17:45.950Z,34.85
2023-05-09T10:18:46.449Z,34.70
2023-05-09T10:19:45.843Z,34.68
2023-05-09T10:20:45.914Z,34.44
2023-05-09T10:21:45.813Z,34.18
2023-05-09T10:22:45.882Z,34.12
2023-05-09T10:23:45.796Z,33.98
2023-05-09T10:24:45.763Z,33.97
2023-05-09T10:25:45.843Z,33.92
2023-05-09T10:26:45.874Z,34.43
2023-05-09T10:27:45.762Z,34.40
2023-05-09T10:28:45.760Z,34.61
2023-05-09T10:29:45.739Z,34.39
2023-05-09T10:30:45.819Z,34.41
2023-05-09T10:31:45.766Z,34.77
2023-05-09T10:32:45.892Z,34.90
2023-05-09T10:33:45.792Z,34.87
2023-05-09T10:34:45.695Z,34.72
2023-05-09T10:35:45.741Z,34.81
2023-05-09T10:36:45.715Z,34.78
2023-05-09T10:37:45.771Z,34.81
2023-05-09T10:38:45.844Z,34.82
2023-05-09T10:39:45.762Z,34.78
2023-05-09T10:40:45.825Z,34.71
2023-05-09T10:41:45.826Z,34.66
2023-05-09T10:42:45.935Z,34.59
2023-05-09T10:43:45.943Z,34.51
2023-05-09T10:44:45.902Z,34.33
2023-05-09T10:45:45.981Z,34.11
2023-05-09T10:46:45.928Z,33.55
2023-05-09T10:47:45.951Z,33.29
2023-05-09T10:48:45.922Z,33.25
2023-05-09T10:49:46.027Z,33.44
2023-05-09T10:50:46.004Z,33.19
2023-05-09T10:51:46.012Z,33.22
2023-05-09T10:52:46.019Z,33.31
2023-05-09T10:53:46.040Z,33.37
2023-05-09T10:54:46.029Z,33.44
2023-05-09T10:55:46.064Z,33.79
2023-05-09T10:56:46.048Z,33.46
2023-05-09T10:57:46.054Z,33.87
2023-05-09T10:58:46.136Z,33.90
2023-05-09T10:59:46.102Z,34.28
2023-05-09T11:00:46.081Z,34.38
2023-05-09T11:01:46.139Z,34.40
2023-05-09T11:02:46.163Z,34.41
2023-05-09T11:03:46.283Z,34.35
2023-05-09T11:04:46.245Z,34.37
2023-05-09T11:05:46.203Z,34.27
2023-05-09T11:06:46.341Z,34.09
2023-05-09T11:07:46.258Z,33.90
2023-05-09T11:08:46.230Z,33.62
2023-05-09T11:09:46.338Z,33.27
2023-05-09T11:10:46.231Z,33.17
2023-05-09T11:11:46.254Z,33.09
2023-05-09T11:12:46.427Z,32.85
2023-05-09T11:13:46.280Z,32.59
2023-05-09T11:14:46.340Z,32.43
2023-05-09T11:15:46.331Z,32.42
2023-05-09T11:16:46.440Z,32.27
2023-05-09T11:17:46.478Z,32.95
2023-05-09T11:18:46.325Z,33.45
2023-05-09T11:19:46.358Z,33.40
2023-05-09T11:20:46.920Z,33.45
2023-05-09T11:21:46.931Z,33.96
2023-05-09T11:22:46.969Z,33.87
2023-05-09T11:23:46.955Z,33.89
2023-05-09T11:24:46.914Z,34.01
2023-05-09T11:25:46.478Z,34.01
2023-05-09T11:26:46.488Z,34.21
2023-05-09T11:27:46.593Z,34.06
2023-05-09T11:28:46.577Z,34.13
2023-05-09T11:29:46.631Z,34.15
2023-05-09T11:30:46.654Z,34.10
2023-05-09T11:31:47.770Z,34.00
2023-05-09T11:32:46.649Z,33.56
2023-05-09T11:33:46.622Z,33.43
2023-05-09T11:34:46.613Z,33.40
2023-05-09T11:35:46.662Z,33.14
2023-05-09T11:36:46.575Z,33.08
2023-05-09T11:37:46.750Z,33.12
2023-05-09T11:38:46.649Z,33.06
2023-05-09T11:39:46.666Z,32.87
2023-05-09T11:40:46.606Z,32.68
2023-05-09T11:41:46.605Z,32.55
2023-05-09T11:42:46.613Z,32.68
2023-05-09T11:43:46.621Z,32.35
2023-05-09T11:44:46.580Z,31.87
2023-05-09T11:45:46.613Z,31.87
2023-05-09T11:46:46.649Z,31.43
2023-05-09T11:47:46.615Z,31.56
2023-05-09T11:48:46.578Z,31.02
2023-05-09T11:49:46.587Z,31.14
2023-05-09T11:50:46.539Z,30.86
2023-05-09T11:51:46.553Z,30.26
2023-05-09T11:52:46.563Z,30.09
2023-05-09T11:53:46.581Z,29.79
2023-05-09T11:54:46.562Z,29.56
2023-05-09T11:55:46.564Z,29.95
2023-05-09T11:56:46.568Z,29.31
2023-05-09T11:57:46.577Z,28.73
2023-05-09T11:58:46.520Z,28.71
2023-05-09T11:59:46.549Z,29.42
2023-05-09T12:00:46.595Z,29.51
2023-05-09T12:01:46.603Z,29.59
2023-05-09T12:02:46.786Z,29.28
2023-05-09T12:03:46.621Z,29.07
2023-05-09T12:04:46.540Z,29.52
2023-05-09T12:05:46.608Z,29.69
2023-05-09T12:06:46.572Z,29.85
2023-05-09T12:07:46.583Z,30.45
2023-05-09T12:08:46.569Z,30.65
2023-05-09T12:09:46.561Z,30.83
2023-05-09T12:10:46.591Z,30.75
2023-05-09T12:11:47.819Z,30.93
2023-05-09T12:12:46.733Z,31.09
2023-05-09T12:13:46.557Z,30.87
2023-05-09T12:14:46.518Z,30.90
2023-05-09T12:15:46.553Z,30.58
2023-05-09T12:16:46.529Z,29.99
2023-05-09T12:17:47.414Z,29.94
2023-05-09T12:18:46.693Z,30.51
2023-05-09T12:19:46.671Z,30.55
2023-05-09T12:20:46.721Z,30.55
2023-05-09T12:21:46.764Z,30.27
2023-05-09T12:22:46.790Z,29.80
2023-05-09T12:23:48.930Z,29.32
2023-05-09T12:24:46.783Z,28.81
2023-05-09T12:25:46.757Z,28.45
2023-05-09T12:26:46.763Z,28.55
2023-05-09T12:27:46.772Z,28.56
2023-05-09T12:28:46.724Z,28.01
2023-05-09T12:29:46.745Z,28.47
2023-05-09T12:30:46.721Z,28.06
2023-05-09T12:31:46.759Z,27.75
2023-05-09T12:32:46.794Z,27.46
2023-05-09T12:33:46.775Z,27.47
2023-05-09T12:34:46.801Z,27.30
2023-05-09T12:35:46.736Z,27.28
2023-05-09T12:36:46.682Z,27.75
2023-05-09T12:37:46.677Z,27.49
2023-05-09T12:38:46.769Z,27.55
2023-05-09T12:39:46.689Z,27.23
2023-05-09T12:40:46.714Z,27.30
2023-05-09T12:41:57.519Z,27.15
2023-05-09T12:42:47.687Z,27.21
2023-05-09T12:43:46.692Z,27.14
2023-05-09T12:44:46.686Z,27.80
2023-05-09T12:45:46.630Z,28.49
2023-05-09T12:46:46.704Z,28.29
2023-05-09T12:47:46.683Z,28.39
2023-05-09T12:48:46.676Z,28.75
2023-05-09T12:49:46.627Z,28.61
2023-05-09T12:50:46.715Z,28.46
2023-05-09T12:51:46.567Z,28.66
2023-05-09T12:52:54.589Z,28.39